Darstellungsparameter: Aktuell verwendete Einstellungen:
Skalierung der Graphiken ... ?
xyx+y,   Skalierungsfaktor:      Skalierung: Modus: x, Faktor: 1
Darstellungszeitraum ... ?
Vom - - bis: - -   Zeitraum: 05.12.2020 - 05.12.2020
Min/Max/Avg-Anzeige ... ?
Zeige MMA aktuell
Zeige MMA Monat
Zeige MMA alles
Zeige --A aktuell
Zeige --A Monat
Zeige --A alles
Keine MMA-Anzeige
MMA:
Keine MMA-Graphiken
MMA-Basis: 05.12.2020 - 05.12.2020
Quicknavigation für Darstellung... ?
Tage:      1T, 2T, 3T, 5T -1T -2T -3T -5T +1T +2T +3T +5T
Wochen: 1W, 2W, 3W -1W -2W -3W +1W +2W +3W
Monate: 1M, 3M, 6M -1M -3M -6M +1M +3M +6M
Jahre:    1J, 3J, 5J, 10J -1J -3J -5J -10J +1J +3J +5J +10J
Nutze für die Darstellung ... ?
Originaldaten oder Mittelwerte auf ...
Stundenbasis Tagesbasis Wochenbasis
Monatsbasis Jahresbasis      Datenbasis: Original-Daten
Darstellen als:
Statistik (Auto) Statistik J:M      Darstellung:
Zur Graphik,    zurück zur Übersicht aller Sensoren.
 
Tabellarische Datenbersicht: ?
 
Sensor: Nr:Datum:Temp:Feuchte:Taupunkt:
Aussen-T/F 1 05-12-2020 00:00:00 4.6 C 97 % 4.17 C
2 05-12-2020 00:05:00 4.6 C 97 % 4.17 C
3 05-12-2020 00:10:00 4.6 C 97 % 4.17 C
4 05-12-2020 00:15:00 4.6 C 97 % 4.17 C
5 05-12-2020 00:20:00 4.5 C 97 % 4.07 C
6 05-12-2020 00:25:00 4.5 C 97 % 4.07 C
7 05-12-2020 00:30:00 4.5 C 97 % 4.07 C
8 05-12-2020 00:35:00 4.5 C 97 % 4.07 C
9 05-12-2020 00:40:00 4.5 C 97 % 4.07 C
10 05-12-2020 00:45:00 4.4 C 97 % 3.97 C
11 05-12-2020 00:50:00 4.4 C 97 % 3.97 C
12 05-12-2020 00:55:00 4.4 C 97 % 3.97 C
13 05-12-2020 01:00:00 4.4 C 97 % 3.97 C
14 05-12-2020 01:05:00 4.5 C 97 % 4.07 C
15 05-12-2020 01:10:00 4.5 C 97 % 4.07 C
16 05-12-2020 01:15:00 4.4 C 97 % 3.97 C
17 05-12-2020 01:20:00 4.4 C 97 % 3.97 C
18 05-12-2020 01:25:00 4.4 C 97 % 3.97 C
19 05-12-2020 01:30:00 4.4 C 97 % 3.97 C
20 05-12-2020 01:35:00 4.4 C 97 % 3.97 C
21 05-12-2020 01:40:00 4.4 C 97 % 3.97 C
22 05-12-2020 01:45:00 4.4 C 97 % 3.97 C
23 05-12-2020 01:50:00 4.4 C 97 % 3.97 C
24 05-12-2020 01:55:00 4.4 C 97 % 3.97 C
25 05-12-2020 02:00:00 4.4 C 97 % 3.97 C
Sensor: Nr:Datum:Temp:Feuchte:Taupunkt:
Aussen-T/F 26 05-12-2020 02:05:00 4.4 C 97 % 3.97 C
27 05-12-2020 02:10:00 4.4 C 97 % 3.97 C
28 05-12-2020 02:15:00 4.4 C 97 % 3.97 C
29 05-12-2020 02:20:00 4.4 C 97 % 3.97 C
30 05-12-2020 02:25:00 4.4 C 97 % 3.97 C
31 05-12-2020 02:30:00 4.4 C 97 % 3.97 C
32 05-12-2020 02:35:00 4.4 C 97 % 3.97 C
33 05-12-2020 02:40:00 4.4 C 97 % 3.97 C
34 05-12-2020 02:45:00 4.4 C 97 % 3.97 C
35 05-12-2020 02:50:00 4.4 C 97 % 3.97 C
36 05-12-2020 02:55:00 4.5 C 97 % 4.07 C
37 05-12-2020 03:00:00 4.5 C 97 % 4.07 C
38 05-12-2020 03:05:00 4.6 C 97 % 4.17 C
39 05-12-2020 03:10:00 4.6 C 97 % 4.17 C
40 05-12-2020 03:15:00 4.5 C 97 % 4.07 C
41 05-12-2020 03:20:00 4.5 C 97 % 4.07 C
42 05-12-2020 03:25:00 4.5 C 97 % 4.07 C
43 05-12-2020 03:30:00 4.5 C 97 % 4.07 C
44 05-12-2020 03:35:00 4.5 C 97 % 4.07 C
45 05-12-2020 03:40:00 4.5 C 97 % 4.07 C
46 05-12-2020 03:45:00 4.4 C 97 % 3.97 C
47 05-12-2020 03:50:00 4.4 C 97 % 3.97 C
48 05-12-2020 03:55:00 4.4 C 97 % 3.97 C
49 05-12-2020 04:00:00 4.4 C 97 % 3.97 C
50 05-12-2020 04:05:00 4.4 C 97 % 3.97 C
Sensor: Nr:Datum:Temp:Feuchte:Taupunkt:
Aussen-T/F 51 05-12-2020 04:10:00 4.4 C 97 % 3.97 C
52 05-12-2020 04:15:00 4.4 C 97 % 3.97 C
53 05-12-2020 04:20:00 4.4 C 97 % 3.97 C
54 05-12-2020 04:25:00 4.3 C 97 % 3.87 C
55 05-12-2020 04:30:00 4.3 C 97 % 3.87 C
56 05-12-2020 04:35:00 4.2 C 96 % 3.62 C
57 05-12-2020 04:40:00 4.2 C 96 % 3.62 C
58 05-12-2020 04:45:00 4.2 C 97 % 3.77 C
59 05-12-2020 04:50:00 4.2 C 97 % 3.77 C
60 05-12-2020 04:55:00 4.1 C 97 % 3.67 C
61 05-12-2020 05:00:00 4.1 C 97 % 3.67 C
62 05-12-2020 05:05:00 3.9 C 96 % 3.32 C
63 05-12-2020 05:10:00 3.9 C 96 % 3.32 C
64 05-12-2020 05:15:00 3.8 C 96 % 3.22 C
65 05-12-2020 05:20:00 3.8 C 96 % 3.22 C
66 05-12-2020 05:25:00 3.7 C 97 % 3.27 C
67 05-12-2020 05:30:00 3.7 C 97 % 3.27 C
68 05-12-2020 05:35:00 3.7 C 97 % 3.27 C
69 05-12-2020 05:40:00 3.7 C 96 % 3.12 C
70 05-12-2020 05:45:00 3.7 C 96 % 3.12 C
71 05-12-2020 05:50:00 3.8 C 97 % 3.37 C
72 05-12-2020 05:55:00 3.8 C 97 % 3.37 C
73 05-12-2020 06:00:00 3.8 C 97 % 3.37 C
74 05-12-2020 06:05:00 3.8 C 97 % 3.37 C
75 05-12-2020 06:10:00 3.8 C 97 % 3.37 C
Sensor: Nr:Datum:Temp:Feuchte:Taupunkt:
Aussen-T/F 76 05-12-2020 06:15:00 3.8 C 97 % 3.37 C
77 05-12-2020 06:20:00 3.8 C 97 % 3.37 C
78 05-12-2020 06:25:00 3.8 C 97 % 3.37 C
79 05-12-2020 06:30:00 3.8 C 97 % 3.37 C
80 05-12-2020 06:35:00 3.7 C 97 % 3.27 C
81 05-12-2020 06:40:00 3.7 C 97 % 3.27 C
82 05-12-2020 06:45:00 3.7 C 97 % 3.27 C
83 05-12-2020 06:50:00 3.7 C 97 % 3.27 C
84 05-12-2020 06:55:00 3.7 C 97 % 3.27 C
85 05-12-2020 07:00:00 3.7 C 97 % 3.27 C
86 05-12-2020 07:05:00 3.8 C 97 % 3.37 C
87 05-12-2020 07:10:00 3.8 C 97 % 3.37 C
88 05-12-2020 07:15:00 3.8 C 97 % 3.37 C
89 05-12-2020 07:20:00 3.9 C 97 % 3.47 C
90 05-12-2020 07:25:00 3.9 C 97 % 3.47 C
91 05-12-2020 07:30:00 3.8 C 97 % 3.37 C
92 05-12-2020 07:35:00 3.8 C 97 % 3.37 C
93 05-12-2020 07:40:00 3.8 C 97 % 3.37 C
94 05-12-2020 07:45:00 3.7 C 97 % 3.27 C
95 05-12-2020 07:50:00 3.5 C 97 % 3.07 C
96 05-12-2020 07:55:00 3.4 C 96 % 2.82 C
97 05-12-2020 08:00:00 3.3 C 97 % 2.87 C
98 05-12-2020 08:05:00 3.4 C 97 % 2.97 C
99 05-12-2020 08:10:00 3.4 C 97 % 2.97 C
100 05-12-2020 08:15:00 3.6 C 97 % 3.17 C
Sensor: Nr:Datum:Temp:Feuchte:Taupunkt:
Aussen-T/F 101 05-12-2020 08:20:00 3.6 C 97 % 3.17 C
102 05-12-2020 08:25:00 3.7 C 97 % 3.27 C
103 05-12-2020 08:30:00 3.8 C 97 % 3.37 C
104 05-12-2020 08:35:00 3.8 C 97 % 3.37 C
105 05-12-2020 08:40:00 3.9 C 97 % 3.47 C
106 05-12-2020 08:45:00 4 C 97 % 3.57 C
107 05-12-2020 08:50:00 4.1 C 97 % 3.67 C
108 05-12-2020 08:55:00 4.2 C 97 % 3.77 C
109 05-12-2020 09:00:00 4.2 C 97 % 3.77 C
110 05-12-2020 09:05:00 4.2 C 97 % 3.77 C
111 05-12-2020 09:10:00 4.3 C 97 % 3.87 C
112 05-12-2020 09:15:00 4.3 C 97 % 3.87 C
113 05-12-2020 09:20:00 4.3 C 97 % 3.87 C
114 05-12-2020 09:25:00 4.4 C 97 % 3.97 C
115 05-12-2020 09:30:00 4.5 C 97 % 4.07 C
116 05-12-2020 09:35:00 4.6 C 97 % 4.17 C
117 05-12-2020 09:40:00 4.6 C 97 % 4.17 C
118 05-12-2020 09:45:00 4.7 C 97 % 4.27 C
119 05-12-2020 09:50:00 4.7 C 97 % 4.27 C
120 05-12-2020 09:55:00 4.8 C 97 % 4.37 C
121 05-12-2020 10:00:00 4.8 C 97 % 4.37 C
122 05-12-2020 10:05:00 4.8 C 97 % 4.37 C
123 05-12-2020 10:10:00 4.8 C 97 % 4.37 C
124 05-12-2020 10:15:00 4.8 C 97 % 4.37 C
125 05-12-2020 10:20:00 4.7 C 97 % 4.27 C
Sensor: Nr:Datum:Temp:Feuchte:Taupunkt:
Aussen-T/F 126 05-12-2020 10:25:00 4.6 C 97 % 4.17 C
127 05-12-2020 10:30:00 4.5 C 97 % 4.07 C
128 05-12-2020 10:35:00 4.4 C 97 % 3.97 C
129 05-12-2020 10:40:00 4.4 C 97 % 3.97 C
130 05-12-2020 10:45:00 4.4 C 97 % 3.97 C
131 05-12-2020 10:50:00 4.4 C 97 % 3.97 C
132 05-12-2020 10:55:00 4.3 C 97 % 3.87 C
133 05-12-2020 11:00:00 4.3 C 97 % 3.87 C
134 05-12-2020 11:05:00 4.3 C 97 % 3.87 C
135 05-12-2020 11:10:00 4.3 C 97 % 3.87 C
136 05-12-2020 11:15:00 4.4 C 97 % 3.97 C
137 05-12-2020 11:20:00 4.4 C 97 % 3.97 C
138 05-12-2020 11:25:00 4.3 C 97 % 3.87 C
139 05-12-2020 11:30:00 4.4 C 97 % 3.97 C
140 05-12-2020 11:35:00 4.4 C 97 % 3.97 C
141 05-12-2020 11:40:00 4.4 C 97 % 3.97 C
142 05-12-2020 11:45:00 4.6 C 97 % 4.17 C
143 05-12-2020 11:50:00 4.8 C 97 % 4.37 C
144 05-12-2020 11:55:00 4.9 C 97 % 4.46 C
145 05-12-2020 12:00:00 5.1 C 98 % 4.81 C
146 05-12-2020 12:05:00 5.2 C 97 % 4.76 C
147 05-12-2020 12:10:00 5.3 C 98 % 5.01 C
148 05-12-2020 12:15:00 5.4 C 98 % 5.11 C
149 05-12-2020 12:20:00 5.4 C 97 % 4.96 C
150 05-12-2020 12:25:00 5.6 C 97 % 5.16 C
Sensor: Nr:Datum:Temp:Feuchte:Taupunkt:
Aussen-T/F 151 05-12-2020 12:30:00 5.5 C 97 % 5.06 C
152 05-12-2020 12:35:00 5.4 C 97 % 4.96 C
153 05-12-2020 12:40:00 5.4 C 97 % 4.96 C
154 05-12-2020 12:45:00 5.3 C 97 % 4.86 C
155 05-12-2020 12:50:00 5.3 C 97 % 4.86 C
156 05-12-2020 12:55:00 5.4 C 97 % 4.96 C
157 05-12-2020 13:00:00 5.4 C 97 % 4.96 C
158 05-12-2020 13:05:00 5.4 C 96 % 4.81 C
159 05-12-2020 13:10:00 5.3 C 94 % 4.41 C
160 05-12-2020 13:15:00 5.3 C 93 % 4.26 C
161 05-12-2020 13:20:00 5.4 C 93 % 4.36 C
162 05-12-2020 13:25:00 5.3 C 92 % 4.11 C
163 05-12-2020 13:30:00 5.3 C 92 % 4.11 C
164 05-12-2020 13:35:00 5.4 C 90 % 3.89 C
165 05-12-2020 13:40:00 5.5 C 90 % 3.99 C
166 05-12-2020 13:45:00 5.6 C 89 % 3.93 C
167 05-12-2020 13:50:00 5.7 C 89 % 4.03 C
168 05-12-2020 13:55:00 5.8 C 89 % 4.13 C
169 05-12-2020 14:00:00 5.9 C 90 % 4.39 C
170 05-12-2020 14:05:00 5.9 C 91 % 4.55 C
171 05-12-2020 14:10:00 5.9 C 91 % 4.55 C
172 05-12-2020 14:15:00 5.9 C 91 % 4.55 C
173 05-12-2020 14:20:00 5.9 C 91 % 4.55 C
174 05-12-2020 14:25:00 5.8 C 90 % 4.29 C
175 05-12-2020 14:30:00 5.8 C 91 % 4.45 C
Sensor: Nr:Datum:Temp:Feuchte:Taupunkt:
Aussen-T/F 176 05-12-2020 14:35:00 5.7 C 91 % 4.35 C
177 05-12-2020 14:40:00 5.6 C 91 % 4.25 C
178 05-12-2020 14:45:00 5.4 C 91 % 4.05 C
179 05-12-2020 14:50:00 5.3 C 91 % 3.95 C
180 05-12-2020 14:55:00 5.2 C 91 % 3.85 C
181 05-12-2020 15:00:00 5.1 C 91 % 3.76 C
182 05-12-2020 15:05:00 4.9 C 91 % 3.56 C
183 05-12-2020 15:10:00 4.8 C 91 % 3.46 C
184 05-12-2020 15:15:00 4.6 C 92 % 3.42 C
185 05-12-2020 15:20:00 4.5 C 92 % 3.32 C
186 05-12-2020 15:25:00 4.3 C 92 % 3.12 C
187 05-12-2020 15:30:00 4.2 C 92 % 3.02 C
188 05-12-2020 15:35:00 4.1 C 92 % 2.92 C
189 05-12-2020 15:40:00 3.9 C 92 % 2.72 C
190 05-12-2020 15:45:00 3.8 C 93 % 2.77 C
191 05-12-2020 15:50:00 3.7 C 93 % 2.68 C
192 05-12-2020 15:55:00 3.6 C 93 % 2.58 C
193 05-12-2020 16:00:00 3.5 C 93 % 2.48 C
194 05-12-2020 16:05:00 3.4 C 93 % 2.38 C
195 05-12-2020 16:10:00 3.3 C 93 % 2.28 C
196 05-12-2020 16:15:00 3.3 C 93 % 2.28 C
197 05-12-2020 16:20:00 3.2 C 93 % 2.18 C
198 05-12-2020 16:25:00 3.1 C 93 % 2.08 C
199 05-12-2020 16:30:00 3 C 94 % 2.13 C
200 05-12-2020 16:35:00 2.9 C 94 % 2.03 C
Sensor: Nr:Datum:Temp:Feuchte:Taupunkt:
Aussen-T/F 201 05-12-2020 16:40:00 2.8 C 94 % 1.93 C
202 05-12-2020 16:45:00 2.8 C 94 % 1.93 C
203 05-12-2020 16:50:00 2.8 C 94 % 1.93 C
204 05-12-2020 16:55:00 2.8 C 94 % 1.93 C
205 05-12-2020 17:00:00 2.7 C 94 % 1.83 C
206 05-12-2020 17:05:00 2.7 C 94 % 1.83 C
207 05-12-2020 17:10:00 2.7 C 94 % 1.83 C
208 05-12-2020 17:15:00 2.7 C 95 % 1.98 C
209 05-12-2020 17:20:00 2.7 C 95 % 1.98 C
210 05-12-2020 17:25:00 2.7 C 95 % 1.98 C
211 05-12-2020 17:30:00 2.7 C 95 % 1.98 C
212 05-12-2020 17:35:00 2.7 C 95 % 1.98 C
213 05-12-2020 17:40:00 2.7 C 95 % 1.98 C
214 05-12-2020 17:45:00 2.7 C 95 % 1.98 C
215 05-12-2020 17:50:00 2.7 C 95 % 1.98 C
216 05-12-2020 17:55:00 2.8 C 95 % 2.08 C
217 05-12-2020 18:00:00 2.8 C 95 % 2.08 C
218 05-12-2020 18:05:00 2.8 C 95 % 2.08 C
219 05-12-2020 18:10:00 2.7 C 95 % 1.98 C
220 05-12-2020 18:15:00 2.7 C 95 % 1.98 C
221 05-12-2020 18:20:00 2.7 C 95 % 1.98 C
222 05-12-2020 18:25:00 2.7 C 95 % 1.98 C
223 05-12-2020 18:30:00 2.7 C 95 % 1.98 C
224 05-12-2020 18:35:00 2.8 C 96 % 2.23 C
225 05-12-2020 18:40:00 2.9 C 96 % 2.33 C
Sensor: Nr:Datum:Temp:Feuchte:Taupunkt:
Aussen-T/F 226 05-12-2020 18:45:00 3.1 C 96 % 2.53 C
227 05-12-2020 18:50:00 3.2 C 96 % 2.63 C
228 05-12-2020 18:55:00 3.3 C 96 % 2.72 C
229 05-12-2020 19:00:00 3.4 C 96 % 2.82 C
230 05-12-2020 19:05:00 3.5 C 96 % 2.92 C
231 05-12-2020 19:10:00 3.6 C 96 % 3.02 C
232 05-12-2020 19:15:00 3.6 C 96 % 3.02 C
233 05-12-2020 19:20:00 3.6 C 96 % 3.02 C
234 05-12-2020 19:25:00 3.6 C 96 % 3.02 C
235 05-12-2020 19:30:00 3.7 C 96 % 3.12 C
236 05-12-2020 19:35:00 3.7 C 96 % 3.12 C
237 05-12-2020 19:40:00 3.7 C 96 % 3.12 C
238 05-12-2020 19:45:00 3.7 C 96 % 3.12 C
239 05-12-2020 19:50:00 3.7 C 96 % 3.12 C
240 05-12-2020 19:55:00 3.8 C 96 % 3.22 C
241 05-12-2020 20:00:00 3.8 C 96 % 3.22 C
242 05-12-2020 20:05:00 3.8 C 96 % 3.22 C
243 05-12-2020 20:10:00 3.8 C 96 % 3.22 C
244 05-12-2020 20:15:00 3.9 C 96 % 3.32 C
245 05-12-2020 20:20:00 3.9 C 96 % 3.32 C
246 05-12-2020 20:25:00 3.9 C 96 % 3.32 C
247 05-12-2020 20:30:00 3.9 C 96 % 3.32 C
248 05-12-2020 20:35:00 3.9 C 96 % 3.32 C
249 05-12-2020 20:40:00 3.9 C 96 % 3.32 C
250 05-12-2020 20:45:00 3.9 C 96 % 3.32 C
Sensor: Nr:Datum:Temp:Feuchte:Taupunkt:
Aussen-T/F 251 05-12-2020 20:50:00 3.9 C 96 % 3.32 C
252 05-12-2020 20:55:00 4 C 96 % 3.42 C
253 05-12-2020 21:00:00 4 C 96 % 3.42 C
254 05-12-2020 21:05:00 4 C 96 % 3.42 C
255 05-12-2020 21:10:00 4 C 96 % 3.42 C
256 05-12-2020 21:15:00 4.1 C 96 % 3.52 C
257 05-12-2020 21:20:00 4.1 C 96 % 3.52 C
258 05-12-2020 21:25:00 4.1 C 96 % 3.52 C
259 05-12-2020 21:30:00 4.1 C 96 % 3.52 C
260 05-12-2020 21:35:00 4.1 C 96 % 3.52 C
261 05-12-2020 21:40:00 4.1 C 96 % 3.52 C
262 05-12-2020 21:45:00 4.1 C 96 % 3.52 C
263 05-12-2020 21:50:00 4.1 C 96 % 3.52 C
264 05-12-2020 21:55:00 4.1 C 96 % 3.52 C
265 05-12-2020 22:00:00 4.1 C 96 % 3.52 C
266 05-12-2020 22:05:00 4.1 C 96 % 3.52 C
267 05-12-2020 22:10:00 4 C 96 % 3.42 C
268 05-12-2020 22:15:00 4 C 96 % 3.42 C
269 05-12-2020 22:20:00 4 C 96 % 3.42 C
270 05-12-2020 22:25:00 4 C 96 % 3.42 C
271 05-12-2020 22:30:00 3.9 C 96 % 3.32 C
272 05-12-2020 22:35:00 3.9 C 96 % 3.32 C
273 05-12-2020 22:40:00 3.9 C 96 % 3.32 C
274 05-12-2020 22:45:00 3.8 C 96 % 3.22 C
275 05-12-2020 22:50:00 3.8 C 96 % 3.22 C
Sensor: Nr:Datum:Temp:Feuchte:Taupunkt:
Aussen-T/F 276 05-12-2020 22:55:00 3.8 C 96 % 3.22 C
277 05-12-2020 23:00:00 3.8 C 96 % 3.22 C
278 05-12-2020 23:05:00 3.8 C 95 % 3.07 C
279 05-12-2020 23:10:00 3.7 C 95 % 2.98 C
280 05-12-2020 23:15:00 3.7 C 95 % 2.98 C
281 05-12-2020 23:20:00 3.7 C 95 % 2.98 C
282 05-12-2020 23:25:00 3.6 C 95 % 2.88 C
283 05-12-2020 23:30:00 3.5 C 95 % 2.78 C
284 05-12-2020 23:35:00 3.4 C 95 % 2.68 C
285 05-12-2020 23:40:00 3.3 C 95 % 2.58 C
286 05-12-2020 23:45:00 3.1 C 95 % 2.38 C
287 05-12-2020 23:50:00 2.9 C 94 % 2.03 C
288 05-12-2020 23:55:00 2.8 C 95 % 2.08 C

Legende:
   Min
   Max


Maximal/Minimal-Werte vom 05.12.2020 - 05.12.2020

Sensor Min Max Avg
Temp
(Aussen-T/F)
2.7 °C
05-12-2020  17:00:00
5.9 °C
05-12-2020  14:00:00
4.13 °C
Feuchte
(Aussen-T/F)
89 %
05-12-2020  13:45:00
98 %
05-12-2020  12:00:00
95.75 %
Taupunkt
(Aussen-T/F)
1.83 C
05-12-2020  17:00:00
5.16 C
05-12-2020  12:25:00
3.5 C

Die Daten stammen von einer Davis Vantage Pro 2 Wetter-Station und werden unter Linux mit der Software wview2wettercgi und aufbereitet. Alle Angaben erfolgen ohne Gewähr für ihre Vollständigkeit oder Richtigkeit.
Kontakt: Rainer Krienke krienke@uni-koblenz.de . Meine Webseiten an der Uni Koblenz oder privat.
Version: $Revision: 0.78 $